Time;durP1;ratioP1;P1;durP2;ratioP2;P2;SDS_P1;SDS_P2;PMS_P1;PMS_P2;Temp;Humidity;BMP_temperature;BMP_pressure;BME280_temperature;BME280_humidity;BME280_pressure;Samples;Min_cycle;Max_cycle;Signal;HPM_P1;HPM_P2
2022/06/14 00:02:29;;;;;;;5.10;2.00;;;15.30;71.40;;;;;;5060984;28;20323;-62
2022/06/14 00:04:55;;;;;;;3.63;2.00;;;15.20;72.10;;;;;;5035841;28;20270;-62
2022/06/14 00:07:21;;;;;;;3.47;2.20;;;15.10;72.40;;;;;;5044201;28;20191;-62
2022/06/14 00:09:46;;;;;;;5.97;2.37;;;15.10;71.90;;;;;;5039125;28;20183;-62
2022/06/14 00:12:13;;;;;;;2.40;2.03;;;14.90;72.40;;;;;;5076055;28;20195;-62
2022/06/14 00:14:39;;;;;;;4.50;2.60;;;14.80;72.40;;;;;;5045715;28;20194;-62
2022/06/14 00:17:05;;;;;;;4.50;2.30;;;14.80;73.10;;;;;;5055179;28;20183;-62
2022/06/14 00:19:30;;;;;;;4.00;2.13;;;14.80;73.20;;;;;;5061617;28;20198;-62
2022/06/14 00:22:01;;;;;;;5.93;2.30;;;14.70;73.30;;;;;;5036746;28;20296;-62
2022/06/14 00:24:28;;;;;;;2.23;1.77;;;14.60;74.20;;;;;;5056372;28;20182;-62
2022/06/14 00:26:54;;;;;;;4.30;1.73;;;14.50;73.30;;;;;;5072278;28;20186;-61
2022/06/14 00:29:19;;;;;;;1.70;1.60;;;14.60;73.60;;;;;;5041476;28;20294;-60
2022/06/14 00:31:45;;;;;;;3.03;1.97;;;14.70;73.90;;;;;;5077834;28;20284;-60
2022/06/14 00:34:11;;;;;;;3.23;1.83;;;14.70;74.00;;;;;;5035521;28;20195;-60
2022/06/14 00:36:36;;;;;;;4.30;2.00;;;14.70;74.50;;;;;;5053637;28;20193;-61
2022/06/14 00:39:06;;;;;;;3.23;2.10;;;14.70;75.00;;;;;;5057437;28;20281;-61
2022/06/14 00:42:01;;;;;;;3.50;1.70;;;14.70;74.40;;;;;;5041744;28;20198;-61
2022/06/14 00:44:29;;;;;;;5.37;2.07;;;14.60;74.20;;;;;;5037331;28;20217;-61
2022/06/14 00:47:15;;;;;;;3.27;2.40;;;14.60;74.20;;;;;;5051099;28;20185;-60
2022/06/14 00:49:56;;;;;;;3.47;1.80;;;14.50;73.90;;;;;;5061651;28;20191;-61
2022/06/14 00:52:21;;;;;;;2.53;2.27;;;14.50;75.10;;;;;;5054975;28;20181;-60
2022/06/14 00:54:54;;;;;;;4.40;1.80;;;14.40;74.50;;;;;;5054621;28;20182;-60
2022/06/14 00:57:27;;;;;;;4.43;2.10;;;14.40;74.20;;;;;;5044421;28;20236;-59
2022/06/14 01:00:13;;;;;;;3.03;2.23;;;14.40;74.50;;;;;;5050975;28;20232;-60
2022/06/14 01:02:44;;;;;;;3.47;2.40;;;14.40;74.60;;;;;;5085518;28;20249;-62
2022/06/14 01:05:17;;;;;;;3.80;2.10;;;14.30;75.20;;;;;;5057609;28;20209;-62
2022/06/14 01:07:48;;;;;;;3.60;2.30;;;14.30;74.90;;;;;;5050357;28;20179;-62
2022/06/14 01:10:19;;;;;;;2.20;2.00;;;14.40;75.00;;;;;;5049930;28;20186;-62
2022/06/14 01:12:49;;;;;;;10.33;2.33;;;14.30;74.70;;;;;;5050313;28;20187;-62
2022/06/14 01:15:17;;;;;;;4.00;2.00;;;14.30;75.20;;;;;;5044887;28;20204;-62
2022/06/14 01:17:50;;;;;;;4.50;2.30;;;14.20;75.20;;;;;;5044283;28;20183;-61
2022/06/14 01:20:18;;;;;;;2.27;1.97;;;14.20;75.40;;;;;;5063515;28;20194;-61
2022/06/14 01:22:45;;;;;;;4.23;2.00;;;14.20;76.00;;;;;;5053376;28;20308;-61
2022/06/14 01:25:11;;;;;;;7.23;3.00;;;14.20;75.30;;;;;;5034805;28;20254;-62
2022/06/14 01:27:39;;;;;;;4.90;1.87;;;14.20;75.10;;;;;;5050714;28;20186;-62
2022/06/14 01:30:18;;;;;;;4.40;2.20;;;14.20;76.20;;;;;;5057723;28;20184;-61
2022/06/14 01:32:54;;;;;;;2.60;2.00;;;14.20;74.70;;;;;;5046318;28;20257;-61
2022/06/14 01:35:24;;;;;;;3.70;2.33;;;14.20;75.00;;;;;;5052137;28;20197;-62
2022/06/14 01:37:53;;;;;;;3.17;2.23;;;14.20;75.40;;;;;;5058753;28;20183;-62
2022/06/14 01:40:24;;;;;;;3.00;2.17;;;14.10;76.10;;;;;;5051442;28;20196;-61
2022/06/14 01:43:08;;;;;;;5.57;2.10;;;14.10;76.10;;;;;;5044006;28;20310;-61
2022/06/14 01:45:48;;;;;;;3.87;2.37;;;14.00;76.00;;;;;;5065517;28;20187;-62
2022/06/14 01:48:41;;;;;;;3.20;2.20;;;14.00;76.50;;;;;;5050503;28;20189;-61
2022/06/14 01:54:20;;;;;;;4.87;3.30;;;14.00;76.40;;;;;;5041262;28;20190;-62
2022/06/14 01:56:54;;;;;;;4.23;2.57;;;14.10;75.20;;;;;;5085966;28;20194;-62
2022/06/14 01:59:49;;;;;;;3.77;1.90;;;14.00;75.60;;;;;;5068159;28;20507;-62
2022/06/14 02:02:31;;;;;;;2.60;2.30;;;13.90;76.00;;;;;;5062318;28;20349;-60
2022/06/14 02:05:43;;;;;;;3.73;2.03;;;13.80;76.40;;;;;;5058331;28;20190;-60
2022/06/14 02:08:17;;;;;;;4.17;2.17;;;13.80;76.90;;;;;;5040278;28;20214;-61
2022/06/14 02:10:54;;;;;;;3.63;2.47;;;13.80;76.80;;;;;;5064787;28;20189;-61
2022/06/14 02:13:28;;;;;;;3.37;2.40;;;13.80;77.30;;;;;;5046283;28;20190;-60
2022/06/14 02:16:12;;;;;;;3.63;2.50;;;13.80;77.10;;;;;;5052350;28;20174;-60
2022/06/14 02:18:58;;;;;;;2.83;2.10;;;13.80;76.80;;;;;;5053095;28;20236;-60
2022/06/14 02:22:02;;;;;;;2.97;2.23;;;13.80;78.00;;;;;;5055420;28;20206;-60
2022/06/14 02:24:55;;;;;;;4.73;2.40;;;13.70;77.50;;;;;;5051929;28;20273;-60
2022/06/14 02:27:44;;;;;;;2.97;2.40;;;13.60;77.70;;;;;;5044384;28;20183;-60
2022/06/14 02:30:15;;;;;;;3.33;2.50;;;13.60;78.00;;;;;;5052273;28;20182;-60
2022/06/14 02:33:14;;;;;;;2.97;2.50;;;13.50;78.40;;;;;;5044340;28;20187;-61
2022/06/14 02:35:57;;;;;;;3.70;2.40;;;13.40;78.60;;;;;;5062900;28;20189;-62
2022/06/14 02:38:46;;;;;;;7.90;3.20;;;13.50;78.40;;;;;;5065533;28;20190;-61
2022/06/14 02:41:23;;;;;;;2.73;2.20;;;13.50;78.40;;;;;;5066262;28;20250;-61
2022/06/14 02:44:00;;;;;;;3.67;2.80;;;13.50;77.70;;;;;;5053062;28;20179;-60
2022/06/14 02:46:36;;;;;;;3.50;2.20;;;13.60;77.70;;;;;;5064642;28;20182;-60
2022/06/14 02:49:30;;;;;;;4.13;2.67;;;13.70;77.90;;;;;;5053619;28;20190;-60
2022/06/14 02:52:14;;;;;;;4.03;2.37;;;13.70;77.70;;;;;;5048715;28;20183;-60
2022/06/14 02:54:47;;;;;;;3.53;2.13;;;13.60;78.20;;;;;;5066955;28;20190;-61
2022/06/14 02:57:19;;;;;;;6.90;2.77;;;13.50;78.10;;;;;;5053922;28;20190;-62
2022/06/14 02:59:58;;;;;;;2.53;2.30;;;13.60;78.00;;;;;;5058415;28;20195;-62
2022/06/14 03:02:31;;;;;;;2.27;2.07;;;13.40;78.30;;;;;;5049944;28;20237;-61
2022/06/14 03:04:59;;;;;;;4.47;2.53;;;13.50;78.40;;;;;;5044428;28;20273;-62
2022/06/14 03:07:39;;;;;;;3.03;2.60;;;13.40;78.40;;;;;;5048976;28;20187;-62
2022/06/14 03:10:06;;;;;;;4.03;3.27;;;13.50;78.30;;;;;;5038739;28;20190;-62
2022/06/14 03:13:07;;;;;;;4.40;2.60;;;13.40;78.30;;;;;;5079350;28;20187;-62
2022/06/14 03:15:37;;;;;;;3.00;2.73;;;13.40;78.30;;;;;;5060019;28;20193;-62
2022/06/14 03:18:15;;;;;;;4.83;2.77;;;13.40;78.40;;;;;;5043487;28;20183;-62
2022/06/14 03:20:44;;;;;;;4.53;2.70;;;13.40;78.30;;;;;;5046560;28;20196;-62
2022/06/14 03:23:32;;;;;;;2.97;2.40;;;13.50;78.90;;;;;;5057941;28;20207;-62
2022/06/14 03:26:07;;;;;;;4.07;2.33;;;13.50;78.30;;;;;;5081017;28;20214;-63
2022/06/14 03:28:43;;;;;;;2.83;2.53;;;13.40;78.10;;;;;;5041789;28;20210;-62
2022/06/14 03:31:28;;;;;;;4.63;2.57;;;13.30;78.30;;;;;;5039026;28;20190;-62
2022/06/14 03:33:53;;;;;;;6.97;2.40;;;13.30;78.30;;;;;;5036693;28;20218;-62
2022/06/14 03:36:19;;;;;;;3.57;2.63;;;13.20;78.50;;;;;;5054137;28;20260;-62
2022/06/14 03:39:02;;;;;;;4.67;2.67;;;13.30;78.60;;;;;;5042461;28;20187;-62
2022/06/14 03:41:31;;;;;;;2.87;2.47;;;13.20;78.90;;;;;;5046022;28;20296;-62
2022/06/14 03:44:00;;;;;;;3.13;2.43;;;13.10;79.50;;;;;;5040937;28;20190;-63
2022/06/14 03:46:39;;;;;;;3.33;2.63;;;13.20;79.30;;;;;;5047769;28;20250;-62
2022/06/14 03:49:25;;;;;;;4.67;2.70;;;13.10;79.60;;;;;;5064124;28;20189;-62
2022/06/14 03:51:53;;;;;;;2.80;2.27;;;13.20;79.30;;;;;;5035173;28;20179;-63
2022/06/14 03:54:46;;;;;;;2.90;2.60;;;13.20;79.80;;;;;;5080000;28;20187;-63
2022/06/14 03:57:21;;;;;;;4.33;2.97;;;13.10;79.70;;;;;;5061612;28;20194;-64
2022/06/14 04:00:13;;;;;;;6.30;2.60;;;13.10;79.70;;;;;;5063018;28;20209;-64
2022/06/14 04:02:53;;;;;;;5.33;3.00;;;13.10;79.50;;;;;;5042676;28;20220;-63
2022/06/14 04:05:28;;;;;;;5.30;3.07;;;13.10;79.80;;;;;;5070085;28;20186;-64
2022/06/14 04:08:04;;;;;;;3.53;2.73;;;13.20;79.60;;;;;;5050014;28;20204;-64
2022/06/14 04:10:44;;;;;;;4.00;2.60;;;13.20;79.90;;;;;;5043997;28;20654;-64
2022/06/14 04:13:19;;;;;;;7.37;3.17;;;13.20;80.40;;;;;;5046807;28;20213;-63
2022/06/14 04:15:55;;;;;;;5.80;2.80;;;13.20;79.80;;;;;;5041394;28;20178;-64
2022/06/14 04:18:38;;;;;;;4.67;2.50;;;13.20;80.20;;;;;;5043930;28;20191;-65
2022/06/14 04:21:30;;;;;;;2.60;2.40;;;13.20;80.20;;;;;;5047878;28;20216;-63
2022/06/14 04:24:18;;;;;;;3.10;2.80;;;13.20;80.20;;;;;;5043695;28;20179;-66
2022/06/14 04:26:43;;;;;;;5.20;3.10;;;13.20;80.70;;;;;;5033622;28;20187;-64
2022/06/14 04:29:36;;;;;;;7.83;2.87;;;13.30;80.80;;;;;;5051434;28;20218;-63
2022/06/14 04:32:39;;;;;;;8.03;2.70;;;13.30;80.20;;;;;;5055347;28;20193;-64
2022/06/14 04:35:14;;;;;;;3.93;2.73;;;13.30;80.00;;;;;;5043621;28;20186;-63
2022/06/14 04:37:53;;;;;;;3.90;3.10;;;13.30;80.10;;;;;;5040225;28;20430;-62
2022/06/14 04:40:52;;;;;;;4.13;2.77;;;13.30;80.10;;;;;;5037372;28;20270;-62
2022/06/14 04:43:26;;;;;;;4.50;2.77;;;13.40;80.10;;;;;;5042479;28;20277;-64
2022/06/14 04:46:15;;;;;;;5.43;3.13;;;13.50;79.60;;;;;;5063514;28;20193;-65
2022/06/14 04:48:52;;;;;;;3.80;2.60;;;13.50;79.10;;;;;;5044370;28;20278;-63
2022/06/14 04:51:21;;;;;;;5.10;2.90;;;13.70;79.50;;;;;;5057991;28;20183;-62
2022/06/14 04:54:02;;;;;;;4.00;2.97;;;13.70;79.20;;;;;;5052368;28;21278;-62
2022/06/14 04:56:34;;;;;;;4.63;3.23;;;13.60;79.90;;;;;;5039753;28;20273;-61
2022/06/14 04:59:25;;;;;;;3.97;2.67;;;13.60;79.90;;;;;;5040705;28;20185;-62
2022/06/14 05:01:59;;;;;;;4.07;3.00;;;13.60;80.30;;;;;;5049645;28;20225;-63
2022/06/14 05:04:25;;;;;;;2.70;2.40;;;13.60;80.60;;;;;;5070561;28;20189;-62
2022/06/14 05:07:03;;;;;;;4.97;2.80;;;13.70;80.30;;;;;;5054350;28;20182;-63
2022/06/14 05:09:34;;;;;;;6.17;2.87;;;13.80;80.30;;;;;;5057964;28;20210;-62
2022/06/14 05:12:07;;;;;;;8.03;3.37;;;13.80;79.70;;;;;;5039596;28;20197;-64
2022/06/14 05:14:40;;;;;;;5.60;2.77;;;13.80;79.30;;;;;;5058354;28;20197;-61
2022/06/14 05:17:38;;;;;;;3.83;2.87;;;13.80;79.90;;;;;;5045458;28;20178;-62
2022/06/14 05:20:07;;;;;;;5.77;3.10;;;13.80;80.00;;;;;;5056019;28;20240;-62
2022/06/14 05:22:59;;;;;;;5.17;2.77;;;14.00;79.80;;;;;;5051574;28;20256;-62
2022/06/14 05:25:50;;;;;;;4.57;2.80;;;14.00;79.30;;;;;;5046247;28;20185;-63
2022/06/14 05:28:33;;;;;;;3.43;2.60;;;14.10;79.00;;;;;;5037752;28;20204;-64
2022/06/14 05:31:28;;;;;;;4.53;2.70;;;14.10;78.60;;;;;;5051899;28;20210;-64
2022/06/14 05:34:09;;;;;;;5.57;3.07;;;14.20;78.60;;;;;;5044701;28;20244;-62
2022/06/14 05:36:43;;;;;;;5.43;2.70;;;14.30;78.60;;;;;;5055057;28;20193;-63
2022/06/14 05:39:23;;;;;;;3.27;2.83;;;14.30;78.80;;;;;;5054863;28;20198;-62
2022/06/14 05:41:56;;;;;;;6.43;3.00;;;14.40;78.10;;;;;;5036805;28;20202;-62
2022/06/14 05:44:30;;;;;;;6.13;2.97;;;14.50;78.30;;;;;;5049181;28;20186;-62
2022/06/14 05:47:02;;;;;;;4.40;2.70;;;14.50;78.20;;;;;;5050565;28;20177;-62
2022/06/14 05:49:34;;;;;;;5.17;2.80;;;14.60;78.00;;;;;;5046523;28;20209;-62
2022/06/14 05:52:08;;;;;;;4.40;2.83;;;14.70;78.10;;;;;;5047384;28;20187;-62
2022/06/14 05:54:51;;;;;;;4.73;3.23;;;14.70;78.10;;;;;;5055405;28;20186;-62
2022/06/14 05:57:38;;;;;;;5.77;3.13;;;14.70;78.20;;;;;;5039481;28;20273;-62
2022/06/14 06:00:11;;;;;;;4.77;2.70;;;14.80;78.00;;;;;;5054851;28;20194;-61
2022/06/14 06:02:51;;;;;;;4.97;2.57;;;14.90;78.20;;;;;;5036818;28;20227;-62
2022/06/14 06:05:29;;;;;;;5.93;2.60;;;14.90;77.40;;;;;;5048065;28;20185;-64
2022/06/14 06:08:24;;;;;;;7.77;2.63;;;15.00;77.40;;;;;;5047783;28;20224;-63
2022/06/14 06:10:54;;;;;;;5.03;3.13;;;15.00;77.50;;;;;;5051880;28;20183;-63
2022/06/14 06:13:55;;;;;;;4.93;2.57;;;15.10;77.60;;;;;;5045872;28;20191;-62
2022/06/14 06:19:31;;;;;;;4.63;2.80;;;15.30;69.40;;;;;;5045029;28;20183;-62
2022/06/14 06:22:06;;;;;;;5.23;2.23;;;15.50;72.20;;;;;;5047950;28;20198;-62
2022/06/14 06:24:48;;;;;;;4.97;2.20;;;15.50;70.60;;;;;;5048783;28;20181;-63
2022/06/14 06:27:13;;;;;;;3.87;2.10;;;15.60;71.60;;;;;;5042173;28;20195;-62
2022/06/14 06:29:53;;;;;;;3.97;2.77;;;15.60;69.00;;;;;;5049527;28;20183;-62
2022/06/14 06:32:20;;;;;;;3.67;2.23;;;15.70;68.60;;;;;;5047659;28;20216;-63
2022/06/14 06:34:48;;;;;;;4.73;2.90;;;15.80;70.40;;;;;;5055695;28;20189;-62
2022/06/14 06:37:26;;;;;;;4.00;2.87;;;15.80;71.10;;;;;;5052963;28;20188;-64
2022/06/14 06:40:22;;;;;;;4.60;2.70;;;15.80;68.10;;;;;;5052209;28;20189;-64
2022/06/14 06:43:06;;;;;;;2.67;1.90;;;15.90;67.50;;;;;;5070591;28;20214;-62
2022/06/14 06:45:38;;;;;;;4.67;2.70;;;16.00;68.20;;;;;;5034102;28;20194;-63
2022/06/14 06:48:06;;;;;;;4.23;2.00;;;16.00;68.40;;;;;;5046103;28;20185;-66
2022/06/14 06:50:40;;;;;;;6.47;3.03;;;16.00;68.30;;;;;;5060045;28;20197;-63
2022/06/14 06:53:15;;;;;;;4.27;3.00;;;16.10;68.30;;;;;;5064280;28;20220;-62
2022/06/14 06:55:41;;;;;;;6.57;3.40;;;16.20;67.70;;;;;;5047116;28;20179;-63
2022/06/14 06:58:18;;;;;;;4.93;2.37;;;16.20;66.30;;;;;;5036934;28;20186;-67
2022/06/14 07:00:45;;;;;;;4.50;2.70;;;16.30;65.30;;;;;;5042901;28;20243;-63
2022/06/14 07:03:30;;;;;;;4.93;2.80;;;16.30;62.90;;;;;;5053585;28;20198;-66
2022/06/14 07:06:00;;;;;;;5.10;2.67;;;16.40;63.50;;;;;;5061287;28;20326;-62
2022/06/14 07:08:44;;;;;;;8.60;3.03;;;16.60;62.40;;;;;;5054556;28;20189;-63
2022/06/14 07:11:15;;;;;;;5.83;2.50;;;16.70;63.20;;;;;;5032061;28;20194;-62
2022/06/14 07:13:52;;;;;;;3.63;2.23;;;16.70;64.20;;;;;;5040083;28;20194;-62
2022/06/14 07:16:31;;;;;;;2.67;2.13;;;16.70;63.00;;;;;;5048533;28;20187;-64
2022/06/14 07:19:08;;;;;;;3.87;2.30;;;16.70;64.70;;;;;;5049084;28;20201;-63
2022/06/14 07:21:39;;;;;;;5.77;2.30;;;16.80;60.20;;;;;;5044845;28;20203;-61
2022/06/14 07:24:21;;;;;;;3.63;2.27;;;16.80;60.80;;;;;;5047585;28;20183;-62
2022/06/14 07:26:51;;;;;;;6.07;2.33;;;16.80;63.10;;;;;;5044969;28;20176;-63
2022/06/14 07:29:26;;;;;;;5.40;2.00;;;16.90;63.90;;;;;;5055104;28;20183;-62
2022/06/14 07:32:17;;;;;;;8.93;2.43;;;16.90;62.40;;;;;;5061265;28;20198;-62
2022/06/14 07:34:44;;;;;;;3.73;2.70;;;17.00;62.90;;;;;;5067374;28;20193;-62
2022/06/14 07:37:10;;;;;;;6.57;2.23;;;17.00;62.00;;;;;;5060945;28;20190;-62
2022/06/14 07:39:55;;;;;;;6.00;2.20;;;17.10;61.40;;;;;;5045020;28;20212;-62
2022/06/14 07:42:32;;;;;;;3.87;3.33;;;17.10;60.90;;;;;;5051983;28;20241;-62
2022/06/14 07:45:20;;;;;;;3.67;2.10;;;17.30;60.80;;;;;;5060676;28;20186;-62
2022/06/14 07:48:05;;;;;;;5.20;2.30;;;17.30;62.20;;;;;;5036165;28;20197;-62
2022/06/14 07:50:37;;;;;;;4.73;2.23;;;17.40;59.60;;;;;;5046476;28;20194;-63
2022/06/14 07:53:18;;;;;;;2.37;2.00;;;17.50;58.90;;;;;;5062967;28;20524;-63
2022/06/14 07:55:49;;;;;;;4.80;1.90;;;17.50;59.20;;;;;;5034443;28;20190;-64
2022/06/14 07:58:22;;;;;;;5.10;2.40;;;17.60;58.80;;;;;;5039474;28;20193;-62
2022/06/14 08:01:09;;;;;;;4.20;2.07;;;17.70;60.30;;;;;;5036817;28;20310;-63
2022/06/14 08:03:47;;;;;;;2.93;2.07;;;17.70;58.90;;;;;;5064242;28;20626;-63
2022/06/14 08:06:31;;;;;;;7.97;2.67;;;17.70;60.60;;;;;;5042192;28;20198;-62
2022/06/14 08:09:05;;;;;;;2.60;2.33;;;17.80;61.60;;;;;;5060836;28;20205;-64
2022/06/14 08:11:46;;;;;;;3.30;2.50;;;17.80;60.50;;;;;;5045464;28;20190;-62
2022/06/14 08:14:25;;;;;;;5.53;2.00;;;17.80;59.70;;;;;;5042185;28;20186;-62
2022/06/14 08:16:52;;;;;;;2.57;2.33;;;17.90;60.90;;;;;;5039569;28;20186;-62
2022/06/14 08:19:44;;;;;;;3.60;2.50;;;18.00;58.80;;;;;;5029671;28;20313;-61
2022/06/14 08:22:18;;;;;;;3.27;2.50;;;18.00;59.30;;;;;;5041453;28;20207;-62
2022/06/14 08:24:49;;;;;;;4.43;2.27;;;18.10;57.50;;;;;;5060680;28;20183;-62
2022/06/14 08:27:29;;;;;;;5.83;2.83;;;18.10;58.00;;;;;;5042052;28;20187;-61
2022/06/14 08:30:14;;;;;;;3.40;2.57;;;18.20;58.10;;;;;;5045962;28;20206;-62
2022/06/14 08:32:49;;;;;;;2.87;2.57;;;18.30;57.60;;;;;;5045651;28;20218;-65
2022/06/14 08:35:41;;;;;;;4.83;2.40;;;18.30;60.10;;;;;;5040231;28;20199;-63
2022/06/14 08:38:12;;;;;;;3.93;2.27;;;18.30;58.80;;;;;;5045280;28;20239;-63
2022/06/14 08:41:05;;;;;;;3.40;2.23;;;18.40;60.10;;;;;;5038079;28;20198;-61
2022/06/14 08:43:59;;;;;;;5.60;2.70;;;18.50;59.50;;;;;;5055725;28;20191;-62
2022/06/14 08:46:43;;;;;;;4.50;2.60;;;18.50;57.70;;;;;;5042525;28;20206;-62
2022/06/14 08:49:10;;;;;;;3.03;2.40;;;18.60;59.70;;;;;;5057594;28;20191;-63
2022/06/14 08:52:17;;;;;;;3.30;2.30;;;18.60;58.40;;;;;;5048083;28;20239;-62
2022/06/14 08:54:43;;;;;;;5.87;2.80;;;18.70;59.50;;;;;;5044006;28;20195;-62
2022/06/14 08:57:27;;;;;;;5.07;2.23;;;18.80;57.70;;;;;;5044628;28;20200;-61
2022/06/14 09:00:00;;;;;;;3.97;2.47;;;18.90;58.60;;;;;;5049840;28;20319;-63
2022/06/14 09:02:56;;;;;;;4.23;2.60;;;19.00;56.90;;;;;;5036724;28;20212;-62
2022/06/14 09:05:52;;;;;;;5.10;2.70;;;19.10;55.90;;;;;;5041726;28;20210;-63
2022/06/14 09:08:44;;;;;;;3.50;2.40;;;19.20;55.40;;;;;;5019055;28;20194;-61
2022/06/14 09:11:43;;;;;;;3.77;2.77;;;19.20;55.90;;;;;;5028222;28;20206;-62
2022/06/14 09:14:27;;;;;;;6.00;2.80;;;19.20;57.40;;;;;;5034913;28;20222;-62
2022/06/14 09:17:20;;;;;;;4.70;2.60;;;19.30;54.30;;;;;;5037618;28;20186;-62
2022/06/14 09:20:32;;;;;;;3.70;2.40;;;19.40;57.20;;;;;;5056886;28;20193;-62
2022/06/14 09:23:21;;;;;;;6.17;2.30;;;19.50;55.50;;;;;;5033101;28;20255;-62
2022/06/14 09:26:17;;;;;;;5.90;2.47;;;19.50;58.10;;;;;;5059387;28;20210;-62
2022/06/14 09:29:04;;;;;;;2.43;2.00;;;19.60;56.50;;;;;;5057363;28;20197;-62
2022/06/14 09:31:39;;;;;;;4.00;2.30;;;19.70;58.20;;;;;;5044344;28;20194;-62
2022/06/14 09:34:22;;;;;;;4.00;2.13;;;19.80;54.90;;;;;;5038105;28;20182;-62
2022/06/14 09:37:09;;;;;;;2.93;2.50;;;19.90;55.60;;;;;;5072641;28;20179;-62
2022/06/14 09:40:10;;;;;;;3.93;2.47;;;20.00;54.40;;;;;;5048796;28;20183;-62
2022/06/14 09:42:48;;;;;;;3.67;2.37;;;20.10;55.40;;;;;;5015714;28;20217;-63
2022/06/14 09:45:32;;;;;;;3.60;2.10;;;20.10;56.10;;;;;;5045019;28;20261;-64
2022/06/14 09:48:24;;;;;;;3.80;2.70;;;20.20;57.40;;;;;;5043779;28;20190;-63
2022/06/14 09:51:14;;;;;;;4.33;2.63;;;20.30;56.30;;;;;;5035304;28;20270;-63
2022/06/14 09:53:58;;;;;;;7.87;2.53;;;20.40;57.30;;;;;;5039603;28;20577;-63
2022/06/14 09:56:52;;;;;;;3.80;2.43;;;20.50;56.90;;;;;;5050915;28;20194;-63
2022/06/14 09:59:36;;;;;;;3.10;1.93;;;20.70;54.90;;;;;;5037029;28;20197;-64
2022/06/14 10:02:27;;;;;;;4.27;2.40;;;20.70;52.50;;;;;;5047191;28;20235;-63
2022/06/14 10:05:24;;;;;;;2.40;2.00;;;20.80;52.20;;;;;;5062315;28;20226;-63
2022/06/14 10:08:23;;;;;;;6.80;2.27;;;20.80;51.90;;;;;;5056008;28;20178;-64
2022/06/14 10:11:16;;;;;;;2.90;2.00;;;20.80;51.80;;;;;;5079295;28;20190;-63
2022/06/14 10:14:14;;;;;;;4.23;2.40;;;20.90;53.50;;;;;;5037752;28;20243;-63
2022/06/14 10:17:14;;;;;;;3.83;2.57;;;20.90;53.00;;;;;;5043128;28;20179;-65
2022/06/14 10:20:38;;;;;;;3.97;2.50;;;21.00;54.90;;;;;;5040953;28;20225;-65
2022/06/14 10:23:25;;;;;;;3.80;2.87;;;21.10;54.30;;;;;;4983383;28;20227;-64
2022/06/14 10:29:20;;;;;;;5.53;2.33;;;21.30;53.40;;;;;;5058865;28;20209;-66
2022/06/14 10:32:00;;;;;;;7.83;2.97;;;21.50;51.70;;;;;;5064041;28;20191;-67
2022/06/14 10:35:00;;;;;;;3.67;2.27;;;21.30;51.40;;;;;;5052564;28;20187;-68
2022/06/14 10:37:42;;;;;;;3.83;2.50;;;21.40;52.80;;;;;;5040738;28;20171;-67
2022/06/14 10:40:24;;;;;;;4.63;2.37;;;21.40;51.40;;;;;;5052502;28;20266;-63
2022/06/14 10:43:08;;;;;;;3.00;2.27;;;21.40;54.30;;;;;;5049306;28;20261;-63
2022/06/14 10:45:38;;;;;;;3.50;2.50;;;21.60;53.30;;;;;;5052197;28;20182;-63
2022/06/14 10:48:15;;;;;;;2.50;2.27;;;21.70;51.50;;;;;;5036033;28;20187;-63
2022/06/14 10:50:47;;;;;;;2.77;2.20;;;21.70;54.60;;;;;;5047884;28;20205;-63
2022/06/14 10:53:26;;;;;;;3.70;2.50;;;21.80;54.90;;;;;;5064029;28;20183;-63
2022/06/14 10:56:00;;;;;;;13.27;2.60;;;21.90;50.10;;;;;;5035545;28;20191;-63
2022/06/14 10:58:26;;;;;;;5.03;2.83;;;21.90;50.00;;;;;;5049461;28;20264;-63
2022/06/14 11:01:05;;;;;;;5.13;2.00;;;21.90;49.60;;;;;;5066145;28;20321;-63
2022/06/14 11:03:52;;;;;;;3.30;2.30;;;21.90;50.40;;;;;;5041416;28;20232;-63
2022/06/14 11:06:48;;;;;;;5.53;2.53;;;22.00;47.70;;;;;;5043832;28;20175;-63
2022/06/14 11:09:38;;;;;;;4.37;2.20;;;22.10;48.40;;;;;;5042236;28;20183;-63
2022/06/14 11:12:22;;;;;;;3.87;2.50;;;22.20;48.30;;;;;;5061312;28;20194;-64
2022/06/14 11:15:02;;;;;;;4.37;1.80;;;22.20;47.80;;;;;;5050372;28;20194;-63
2022/06/14 11:17:50;;;;;;;4.47;2.43;;;22.30;50.70;;;;;;5082208;28;20178;-63
2022/06/14 11:20:27;;;;;;;3.63;2.70;;;22.30;50.50;;;;;;5050374;28;20315;-64
2022/06/14 11:23:20;;;;;;;3.13;2.13;;;22.30;52.20;;;;;;5045767;28;20199;-64
2022/06/14 11:26:06;;;;;;;3.73;2.13;;;22.50;52.80;;;;;;5048111;28;20182;-63
2022/06/14 11:28:50;;;;;;;2.77;2.23;;;22.60;51.60;;;;;;5061291;28;20178;-63
2022/06/14 11:31:15;;;;;;;5.27;2.20;;;22.80;48.50;;;;;;5047503;28;20269;-63
2022/06/14 11:33:56;;;;;;;14.13;2.83;;;22.60;46.50;;;;;;5061290;28;20337;-63
2022/06/14 11:36:35;;;;;;;2.77;2.20;;;22.70;47.40;;;;;;5046238;28;20187;-64
2022/06/14 11:39:30;;;;;;;4.63;2.87;;;22.70;49.20;;;;;;5049716;28;20189;-63
2022/06/14 11:41:57;;;;;;;3.57;2.20;;;22.90;49.00;;;;;;5033061;28;20310;-63
2022/06/14 11:44:49;;;;;;;3.63;2.23;;;22.90;46.90;;;;;;5061094;28;20185;-63
2022/06/14 11:47:41;;;;;;;2.60;2.30;;;23.10;47.90;;;;;;5059828;28;20229;-64
2022/06/14 11:50:31;;;;;;;4.70;2.43;;;23.20;46.50;;;;;;5065302;28;20195;-63
2022/06/14 11:53:05;;;;;;;5.30;2.03;;;23.30;46.70;;;;;;5074747;28;20190;-64
2022/06/14 11:55:46;;;;;;;3.83;2.37;;;23.60;46.50;;;;;;5078324;28;20301;-64
2022/06/14 11:58:35;;;;;;;3.80;2.40;;;23.70;44.80;;;;;;5080196;28;20187;-63
2022/06/14 12:01:20;;;;;;;3.67;2.07;;;24.20;42.90;;;;;;5018299;28;20238;-64
2022/06/14 12:03:46;;;;;;;5.43;2.30;;;24.80;42.80;;;;;;5041228;28;20236;-64
2022/06/14 12:06:12;;;;;;;3.10;2.27;;;25.60;43.10;;;;;;5046487;28;20179;-64
2022/06/14 12:08:44;;;;;;;3.67;2.23;;;26.40;42.00;;;;;;5055316;28;20179;-63
2022/06/14 12:11:24;;;;;;;3.13;2.00;;;27.20;42.20;;;;;;5068297;28;20205;-61
2022/06/14 12:14:18;;;;;;;2.47;1.80;;;28.20;41.10;;;;;;5050744;28;20217;-61
2022/06/14 12:16:51;;;;;;;2.70;1.97;;;28.80;39.60;;;;;;5047501;28;20194;-62
2022/06/14 12:19:34;;;;;;;2.47;2.00;;;29.60;41.30;;;;;;5045146;28;20207;-61
2022/06/14 12:22:36;;;;;;;3.47;2.40;;;30.40;37.80;;;;;;5039670;28;20203;-61
2022/06/14 12:28:08;;;;;;;2.30;2.00;;;32.60;35.30;;;;;;5051130;28;20200;-60
2022/06/14 12:30:36;;;;;;;3.43;2.20;;;33.20;30.50;;;;;;5065686;28;20205;-60
2022/06/14 12:33:46;;;;;;;3.83;2.33;;;33.70;28.00;;;;;;5093128;28;20183;-60
2022/06/14 12:36:21;;;;;;;2.40;1.85;;;34.20;29.90;;;;;;4968078;28;20195;-62
2022/06/14 12:38:49;;;;;;;6.05;1.95;;;34.50;28.40;;;;;;5041936;28;20194;-61
2022/06/14 12:41:37;;;;;;;3.80;2.20;;;34.90;26.40;;;;;;5038147;28;20187;-61
2022/06/14 12:44:15;;;;;;;4.32;1.88;;;35.00;28.00;;;;;;5044605;28;20187;-62
2022/06/14 12:46:45;;;;;;;3.97;2.15;;;35.00;30.00;;;;;;5040874;28;20179;-61
2022/06/14 12:49:29;;;;;;;3.30;1.58;;;35.50;29.20;;;;;;5050092;28;20194;-61
2022/06/14 12:52:34;;;;;;;4.25;1.83;;;35.50;29.90;;;;;;5050863;28;20198;-62
2022/06/14 12:55:05;;;;;;;4.28;1.90;;;35.40;26.50;;;;;;5021406;28;20206;-62
2022/06/14 12:57:59;;;;;;;2.08;1.63;;;35.50;30.30;;;;;;5060074;28;20178;-62
2022/06/14 13:00:35;;;;;;;3.78;2.08;;;35.70;26.30;;;;;;5043896;28;20317;-61
2022/06/14 13:03:24;;;;;;;4.68;2.20;;;35.30;29.10;;;;;;5052686;28;20177;-61
2022/06/14 13:05:55;;;;;;;4.65;1.95;;;34.60;26.00;;;;;;5003430;28;20198;-61
2022/06/14 13:08:24;;;;;;;10.73;2.45;;;34.70;28.60;;;;;;5059773;28;20223;-61
2022/06/14 13:11:30;;;;;;;3.97;1.88;;;34.90;26.50;;;;;;5050692;28;20187;-62
2022/06/14 13:14:15;;;;;;;2.88;1.90;;;35.30;25.40;;;;;;5011267;28;20244;-61
2022/06/14 13:17:11;;;;;;;5.50;2.10;;;34.90;27.80;;;;;;5055381;28;20212;-62
2022/06/14 13:19:49;;;;;;;2.22;1.70;;;35.00;27.10;;;;;;5037058;28;20187;-62
2022/06/14 13:22:20;;;;;;;5.53;1.90;;;34.00;29.20;;;;;;5063788;28;20186;-61
2022/06/14 13:25:20;;;;;;;3.33;2.20;;;33.00;27.50;;;;;;5060648;28;20232;-62
2022/06/14 13:28:04;;;;;;;3.97;2.30;;;31.90;32.60;;;;;;5046679;28;20207;-61
2022/06/14 13:30:48;;;;;;;4.93;2.27;;;31.00;34.10;;;;;;5037311;28;20273;-61
2022/06/14 13:33:43;;;;;;;2.40;2.03;;;30.00;34.70;;;;;;5033962;28;20260;-61
2022/06/14 13:36:25;;;;;;;3.67;2.10;;;29.70;36.80;;;;;;5055296;28;20179;-61
2022/06/14 13:39:00;;;;;;;3.20;2.40;;;30.20;36.00;;;;;;5078152;28;20178;-61
2022/06/14 13:41:34;;;;;;;3.97;2.10;;;30.10;31.80;;;;;;5040176;28;20189;-61
2022/06/14 13:44:13;;;;;;;3.30;2.20;;;29.60;34.20;;;;;;5055398;28;20190;-61
2022/06/14 13:46:45;;;;;;;3.23;2.10;;;29.30;35.20;;;;;;5059004;28;20187;-61
2022/06/14 13:49:34;;;;;;;4.43;2.37;;;29.10;32.80;;;;;;5034645;28;20198;-61
2022/06/14 13:52:07;;;;;;;3.83;2.00;;;28.90;34.90;;;;;;5034840;28;20260;-60
2022/06/14 13:54:56;;;;;;;4.77;2.40;;;28.70;37.70;;;;;;5040351;28;20175;-63
2022/06/14 13:57:47;;;;;;;3.30;2.13;;;28.40;35.60;;;;;;5068899;28;20192;-59
2022/06/14 14:00:26;;;;;;;3.27;2.40;;;28.40;35.00;;;;;;5042978;28;20186;-59
2022/06/14 14:03:15;;;;;;;3.00;2.00;;;28.30;36.20;;;;;;5038654;28;20237;-59
2022/06/14 14:05:58;;;;;;;3.53;2.23;;;28.10;36.50;;;;;;5047550;28;20191;-59